Time;durP1;ratioP1;P1;durP2;ratioP2;P2;SDS_P1;SDS_P2;PMS_P1;PMS_P2;Temp;Humidity;BMP_temperature;BMP_pressure;BME280_temperature;BME280_humidity;BME280_pressure;Samples;Min_cycle;Max_cycle;Signal;HPM_P1;HPM_P2
2024/03/31 00:01:15;;;;;;;6.90;1.90;;;;;;;15.88;51.01;101806.75;107073;1257;25497;-57
2024/03/31 00:03:46;;;;;;;7.20;2.10;;;;;;;15.89;50.93;101808.13;107083;1252;25369;-58
2024/03/31 00:06:13;;;;;;;8.00;1.90;;;;;;;15.90;50.89;101807.22;106846;1253;25386;-57
2024/03/31 00:08:40;;;;;;;6.30;2.40;;;;;;;15.91;50.89;101803.52;107047;1256;25500;-58
2024/03/31 00:11:07;;;;;;;7.50;1.80;;;;;;;15.92;50.71;101804.00;107072;1256;25564;-58
2024/03/31 00:13:35;;;;;;;5.90;2.30;;;;;;;15.92;50.60;101798.76;107073;1254;25501;-58
2024/03/31 00:16:02;;;;;;;6.00;2.00;;;;;;;15.91;50.60;101796.66;107184;1256;25430;-58
2024/03/31 00:18:29;;;;;;;8.70;2.50;;;;;;;15.92;50.62;101791.23;107004;1255;25379;-58
2024/03/31 00:20:56;;;;;;;5.50;1.80;;;;;;;15.97;50.47;101785.84;106894;1267;23912;-57
2024/03/31 00:23:23;;;;;;;5.50;2.10;;;;;;;15.92;50.53;101780.89;107130;1256;25355;-58
2024/03/31 00:25:57;;;;;;;5.40;1.90;;;;;;;15.87;50.71;101777.00;107101;1257;25422;-57
2024/03/31 00:28:24;;;;;;;6.80;1.90;;;;;;;15.86;50.75;101776.88;107112;1257;25448;-57
2024/03/31 00:31:01;;;;;;;10.80;2.40;;;;;;;15.86;50.79;101772.69;106910;1257;25358;-57
2024/03/31 00:33:28;;;;;;;7.90;2.60;;;;;;;15.85;50.78;101766.57;107062;1257;25380;-58
2024/03/31 00:35:56;;;;;;;8.00;2.70;;;;;;;15.87;50.89;101763.02;107054;1257;25364;-58
2024/03/31 00:38:24;;;;;;;8.10;2.10;;;;;;;15.85;50.92;101764.66;107056;1258;22664;-58
2024/03/31 00:40:51;;;;;;;9.30;2.90;;;;;;;15.84;51.00;101765.20;107196;1263;25428;-57
2024/03/31 00:43:18;;;;;;;12.20;3.10;;;;;;;15.82;51.08;101762.98;106999;1256;25370;-58
2024/03/31 00:45:45;;;;;;;8.60;2.20;;;;;;;15.80;51.21;101766.02;107077;1253;25401;-57
2024/03/31 00:48:12;;;;;;;5.70;1.90;;;;;;;15.79;51.30;101764.64;107115;1256;25360;-58
2024/03/31 00:50:39;;;;;;;5.70;2.00;;;;;;;15.77;51.34;101765.58;107170;1259;23887;-58
2024/03/31 00:53:06;;;;;;;13.60;3.40;;;;;;;15.75;51.25;101762.48;106995;1264;25341;-57
2024/03/31 00:55:33;;;;;;;7.40;2.30;;;;;;;15.72;51.24;101763.80;107126;1262;25367;-58
2024/03/31 00:58:00;;;;;;;7.80;2.60;;;;;;;15.68;51.36;101763.38;106840;1257;23303;-58
2024/03/31 01:00:27;;;;;;;9.20;3.20;;;;;;;15.65;51.49;101766.42;106995;1256;25495;-57
2024/03/31 01:02:54;;;;;;;7.40;2.10;;;;;;;15.63;51.57;101771.55;106755;1267;25493;-57
2024/03/31 01:05:21;;;;;;;13.70;3.80;;;;;;;15.61;51.53;101759.02;106771;1260;25366;-58
2024/03/31 01:07:48;;;;;;;14.60;3.20;;;;;;;15.59;51.46;101762.59;106808;1260;25392;-57
2024/03/31 01:10:15;;;;;;;13.80;3.50;;;;;;;15.55;51.48;101762.15;106738;1260;25489;-57
2024/03/31 01:12:43;;;;;;;8.90;3.40;;;;;;;15.51;51.59;101762.60;107077;1261;25447;-57
2024/03/31 01:15:16;;;;;;;11.10;3.10;;;;;;;15.47;51.71;101766.19;107150;1252;24257;-57
2024/03/31 01:17:44;;;;;;;10.30;2.90;;;;;;;15.46;52.00;101766.23;106911;1260;25354;-58
2024/03/31 01:20:11;;;;;;;11.90;3.00;;;;;;;15.45;52.06;101764.50;107075;1257;24222;-58
2024/03/31 01:22:38;;;;;;;13.40;4.40;;;;;;;15.46;52.04;101763.61;107157;1262;25373;-58
2024/03/31 01:25:06;;;;;;;15.60;3.90;;;;;;;15.45;51.97;101761.55;107092;1259;25476;-57
2024/03/31 01:27:33;;;;;;;14.40;3.80;;;;;;;15.42;51.98;101761.09;106855;1272;22660;-57
2024/03/31 01:30:00;;;;;;;22.60;3.90;;;;;;;15.39;52.13;101762.35;107086;1256;25545;-57
2024/03/31 01:32:26;;;;;;;14.30;3.60;;;;;;;15.36;52.34;101759.98;107120;1257;25380;-57
2024/03/31 01:34:54;;;;;;;9.40;3.10;;;;;;;15.38;52.50;101763.77;107065;1252;25380;-58
2024/03/31 01:37:21;;;;;;;10.20;3.30;;;;;;;15.39;52.48;101763.05;106803;1258;25369;-57
2024/03/31 01:39:48;;;;;;;6.70;2.70;;;;;;;15.39;52.29;101769.54;107097;1255;22615;-57
2024/03/31 01:42:16;;;;;;;7.40;2.00;;;;;;;15.39;52.19;101769.70;107044;1264;25532;-57
2024/03/31 01:44:43;;;;;;;9.10;2.60;;;;;;;15.37;52.03;101773.06;107118;1254;25417;-57
2024/03/31 01:47:10;;;;;;;10.20;2.10;;;;;;;15.36;52.04;101771.88;107087;1262;25361;-58
2024/03/31 01:49:37;;;;;;;7.40;2.50;;;;;;;15.40;52.01;101772.82;107122;1258;25337;-58
2024/03/31 01:52:04;;;;;;;5.40;2.10;;;;;;;15.42;52.18;101779.92;107051;1259;25419;-57
2024/03/31 01:54:33;;;;;;;8.20;2.00;;;;;;;15.43;52.40;101778.52;107130;1254;22542;-57
2024/03/31 01:57:00;;;;;;;7.60;2.10;;;;;;;15.44;52.63;101780.77;106798;1258;22634;-57
2024/03/31 01:59:28;;;;;;;8.20;1.80;;;;;;;15.41;52.84;101782.08;106676;1274;24901;-57
2024/03/31 02:01:55;;;;;;;9.90;2.90;;;;;;;15.47;52.83;101782.98;107055;1252;25354;-57
2024/03/31 02:04:22;;;;;;;7.10;2.10;;;;;;;15.49;52.76;101787.49;107001;1253;25379;-58
2024/03/31 02:06:49;;;;;;;10.70;2.20;;;;;;;15.50;52.58;101791.48;106658;1272;25387;-58
2024/03/31 02:09:16;;;;;;;8.00;2.60;;;;;;;15.45;52.59;101791.27;106702;1260;25377;-58
2024/03/31 02:11:44;;;;;;;6.50;1.80;;;;;;;15.44;52.53;101787.60;106619;1258;25498;-60
2024/03/31 02:14:11;;;;;;;10.10;2.40;;;;;;;15.47;52.41;101791.23;106607;1257;25362;-57
2024/03/31 02:16:38;;;;;;;7.80;2.30;;;;;;;15.43;52.55;101785.17;106748;1268;25427;-57
2024/03/31 02:19:05;;;;;;;7.80;2.40;;;;;;;15.44;52.63;101785.48;106729;1258;25380;-57
2024/03/31 02:21:32;;;;;;;9.20;3.60;;;;;;;15.51;52.56;101781.14;106654;1268;25376;-57
2024/03/31 02:24:00;;;;;;;9.40;2.70;;;;;;;15.47;52.65;101777.21;106752;1255;25368;-57
2024/03/31 02:26:27;;;;;;;6.00;2.10;;;;;;;15.36;53.09;101774.86;106663;1260;25509;-57
2024/03/31 02:28:54;;;;;;;12.30;2.70;;;;;;;15.26;53.49;101780.53;106681;1260;25362;-57
2024/03/31 02:31:21;;;;;;;5.60;2.40;;;;;;;15.24;53.62;101779.71;106661;1260;25602;-57
2024/03/31 02:33:48;;;;;;;11.00;2.60;;;;;;;15.22;53.72;101780.10;106789;1258;25667;-57
2024/03/31 02:36:15;;;;;;;7.70;2.80;;;;;;;15.22;53.86;101777.98;106874;1255;25417;-58
2024/03/31 02:38:43;;;;;;;8.00;2.50;;;;;;;15.23;53.86;101782.86;106987;1259;25351;-56
2024/03/31 02:41:09;;;;;;;15.40;3.10;;;;;;;15.30;53.78;101790.22;106850;1255;23143;-58
2024/03/31 02:43:38;;;;;;;6.00;1.90;;;;;;;15.40;53.45;101787.85;106769;1259;25400;-58
2024/03/31 02:46:05;;;;;;;11.50;3.10;;;;;;;15.39;53.41;101788.58;106847;1258;25392;-57
2024/03/31 02:48:32;;;;;;;8.40;2.60;;;;;;;15.34;53.54;101787.14;107017;1257;25352;-58
2024/03/31 02:51:00;;;;;;;9.90;2.60;;;;;;;15.37;53.44;101790.38;106903;1258;25351;-58
2024/03/31 02:53:26;;;;;;;9.10;3.00;;;;;;;15.38;53.37;101790.00;106811;1256;25419;-59
2024/03/31 02:55:53;;;;;;;10.80;3.40;;;;;;;15.40;53.29;101790.66;107159;1257;25351;-58
2024/03/31 02:58:21;;;;;;;9.50;2.50;;;;;;;15.39;53.15;101795.22;106896;1255;25501;-58
2024/03/31 03:00:48;;;;;;;15.20;3.50;;;;;;;15.38;53.03;101795.77;106824;1257;25380;-59
2024/03/31 03:03:15;;;;;;;10.70;3.30;;;;;;;15.48;52.66;101798.70;106950;1256;22527;-58
2024/03/31 03:05:42;;;;;;;11.90;3.30;;;;;;;15.48;52.56;101795.92;107044;1263;22523;-58
2024/03/31 03:08:08;;;;;;;9.30;3.10;;;;;;;15.46;52.53;101791.23;107179;1259;25304;-58
2024/03/31 03:10:36;;;;;;;10.60;3.20;;;;;;;15.46;52.61;101790.35;106822;1260;25351;-57
2024/03/31 03:13:04;;;;;;;14.40;3.70;;;;;;;15.45;52.66;101785.65;106746;1274;25460;-58
2024/03/31 03:15:31;;;;;;;12.90;2.80;;;;;;;15.46;52.64;101786.52;106884;1274;25379;-58
2024/03/31 03:17:58;;;;;;;14.70;4.10;;;;;;;15.47;52.63;101788.25;107156;1256;25372;-58
2024/03/31 03:20:25;;;;;;;5.60;2.40;;;;;;;15.47;52.66;101790.88;106824;1257;25440;-58
2024/03/31 03:23:01;;;;;;;9.70;3.30;;;;;;;15.48;52.74;101792.22;107098;1258;25438;-57
2024/03/31 03:25:28;;;;;;;7.90;2.80;;;;;;;15.50;52.88;101795.85;106969;1263;25379;-57
2024/03/31 03:27:55;;;;;;;8.60;2.60;;;;;;;15.51;52.83;101796.18;107166;1263;25492;-58
2024/03/31 03:30:22;;;;;;;10.40;3.50;;;;;;;15.52;52.80;101794.23;106878;1260;25489;-58
2024/03/31 03:32:53;;;;;;;14.90;4.00;;;;;;;15.53;52.84;101792.27;106366;1276;25435;-57
2024/03/31 03:35:19;;;;;;;14.60;4.30;;;;;;;15.54;52.74;101792.93;106881;1256;22531;-57
2024/03/31 03:37:47;;;;;;;19.30;4.80;;;;;;;15.53;52.71;101797.02;107109;1255;25379;-57
2024/03/31 03:40:14;;;;;;;13.80;4.00;;;;;;;15.51;52.82;101796.89;106974;1263;25497;-59
2024/03/31 03:42:42;;;;;;;21.80;4.20;;;;;;;15.49;52.72;101796.75;106762;1262;25352;-57
2024/03/31 03:45:09;;;;;;;14.80;3.90;;;;;;;15.48;52.69;101798.54;106770;1267;25428;-57
2024/03/31 03:47:36;;;;;;;13.90;3.40;;;;;;;15.47;52.73;101799.26;107128;1257;25369;-57
2024/03/31 03:50:04;;;;;;;12.60;4.50;;;;;;;15.48;52.84;101805.36;107119;1262;25360;-57
2024/03/31 03:52:31;;;;;;;12.70;3.60;;;;;;;15.48;52.92;101809.04;106850;1257;25389;-57
2024/03/31 03:54:58;;;;;;;15.10;3.60;;;;;;;15.48;52.99;101808.16;106846;1266;25501;-58
2024/03/31 03:57:25;;;;;;;19.00;4.30;;;;;;;15.45;53.13;101811.71;107051;1256;25367;-57
2024/03/31 03:59:53;;;;;;;12.10;3.90;;;;;;;15.35;53.42;101809.31;106898;1254;25415;-58
2024/03/31 04:02:19;;;;;;;13.80;3.90;;;;;;;15.33;53.61;101809.56;107084;1253;22677;-57
2024/03/31 04:04:47;;;;;;;16.70;3.80;;;;;;;15.32;53.70;101810.98;107097;1256;25406;-57
2024/03/31 04:07:14;;;;;;;10.20;3.00;;;;;;;15.33;53.83;101809.38;107068;1256;25351;-57
2024/03/31 04:09:41;;;;;;;15.90;4.10;;;;;;;15.34;53.86;101806.89;107080;1254;25373;-57
2024/03/31 04:12:08;;;;;;;15.90;5.10;;;;;;;15.36;53.95;101800.38;107162;1257;25402;-57
2024/03/31 04:14:35;;;;;;;14.20;3.70;;;;;;;15.37;53.96;101798.42;107097;1253;25344;-58
2024/03/31 04:17:03;;;;;;;10.90;3.60;;;;;;;15.39;54.02;101801.16;107130;1252;25392;-58
2024/03/31 04:19:31;;;;;;;12.40;3.20;;;;;;;15.48;53.92;101807.09;107147;1254;25354;-58
2024/03/31 04:21:58;;;;;;;16.80;3.20;;;;;;;15.58;53.87;101808.59;107003;1252;25414;-58
2024/03/31 04:24:25;;;;;;;15.90;3.90;;;;;;;15.61;53.96;101811.14;106889;1267;25412;-57
2024/03/31 04:26:53;;;;;;;14.60;3.60;;;;;;;15.64;53.99;101813.85;106832;1261;25491;-58
2024/03/31 04:29:20;;;;;;;13.10;3.50;;;;;;;15.66;54.10;101808.89;106917;1269;25380;-58
2024/03/31 04:31:57;;;;;;;11.20;3.20;;;;;;;15.69;54.21;101807.42;106770;1258;25435;-58
2024/03/31 04:34:30;;;;;;;13.70;4.20;;;;;;;15.72;54.30;101806.64;106825;1262;22543;-57
2024/03/31 04:36:58;;;;;;;12.00;3.30;;;;;;;15.75;54.38;101805.52;106854;1255;22672;-58
2024/03/31 04:39:25;;;;;;;11.30;3.60;;;;;;;15.77;54.35;101803.90;107080;1259;25382;-58
2024/03/31 04:41:53;;;;;;;13.80;3.70;;;;;;;15.80;54.37;101803.11;106852;1258;25383;-58
2024/03/31 04:44:20;;;;;;;11.20;2.70;;;;;;;15.83;54.38;101803.55;106831;1257;25365;-57
2024/03/31 04:46:50;;;;;;;13.20;3.00;;;;;;;15.85;54.43;101805.41;107103;1257;25351;-58
2024/03/31 04:49:18;;;;;;;11.70;3.30;;;;;;;15.87;54.42;101800.98;107230;1259;22669;-57
2024/03/31 04:51:49;;;;;;;10.50;2.90;;;;;;;15.90;54.48;101802.48;107196;1266;25371;-57
2024/03/31 04:54:21;;;;;;;11.90;3.50;;;;;;;15.93;54.53;101801.52;105580;1256;1003741;-57
2024/03/31 04:56:48;;;;;;;12.00;3.10;;;;;;;15.95;54.49;101800.08;106883;1257;25596;-57
2024/03/31 04:59:18;;;;;;;13.50;3.40;;;;;;;15.97;54.53;101801.77;107073;1260;25352;-58
2024/03/31 05:01:46;;;;;;;15.90;3.10;;;;;;;15.98;54.50;101803.47;106822;1257;25402;-57
2024/03/31 05:04:13;;;;;;;12.50;3.70;;;;;;;16.01;54.53;101807.25;107030;1268;25367;-58
2024/03/31 05:06:41;;;;;;;13.40;3.00;;;;;;;16.03;54.55;101809.64;107036;1253;22793;-58
2024/03/31 05:09:08;;;;;;;17.00;3.30;;;;;;;16.06;54.51;101803.60;107078;1259;24262;-57
2024/03/31 05:11:35;;;;;;;13.10;3.30;;;;;;;16.09;54.55;101808.06;106716;1275;25435;-57
2024/03/31 05:14:03;;;;;;;10.00;3.30;;;;;;;16.12;54.52;101808.16;107099;1255;22534;-57
2024/03/31 05:16:33;;;;;;;15.00;4.30;;;;;;;16.14;54.48;101806.71;106817;1256;25357;-58
2024/03/31 05:19:00;;;;;;;12.70;3.20;;;;;;;16.18;54.55;101803.80;106870;1255;25432;-58
2024/03/31 05:21:27;;;;;;;10.60;3.30;;;;;;;16.21;54.58;101798.46;107120;1263;22560;-57
2024/03/31 05:23:56;;;;;;;10.60;3.10;;;;;;;16.26;54.55;101799.89;107122;1259;25291;-57
2024/03/31 05:26:29;;;;;;;14.70;3.90;;;;;;;16.29;54.50;101796.83;106762;1260;25355;-58
2024/03/31 05:28:56;;;;;;;12.70;3.60;;;;;;;16.33;54.49;101794.80;106882;1256;25334;-57
2024/03/31 05:31:28;;;;;;;17.30;3.10;;;;;;;16.38;54.47;101796.05;106853;1256;22540;-56
2024/03/31 05:34:06;;;;;;;11.00;3.40;;;;;;;16.42;54.52;101797.16;107187;1260;25453;-57
2024/03/31 05:36:37;;;;;;;16.00;4.50;;;;;;;16.46;54.44;101798.11;107138;1256;25428;-56
2024/03/31 05:39:04;;;;;;;12.20;3.40;;;;;;;16.49;54.39;101801.36;106776;1259;24505;-56
2024/03/31 05:41:31;;;;;;;12.30;4.10;;;;;;;16.53;54.33;101803.36;106876;1258;25429;-57
2024/03/31 05:43:59;;;;;;;17.70;3.90;;;;;;;16.57;54.32;101806.75;106866;1261;25372;-57
2024/03/31 05:46:28;;;;;;;11.60;3.80;;;;;;;16.61;54.22;101808.02;107102;1258;25357;-57
2024/03/31 05:48:56;;;;;;;10.90;3.50;;;;;;;16.59;54.36;101807.54;107062;1254;22635;-56
2024/03/31 05:51:27;;;;;;;14.40;3.80;;;;;;;16.68;54.27;101809.36;106997;1253;25313;-56
2024/03/31 05:53:54;;;;;;;16.40;4.10;;;;;;;16.79;54.40;101804.31;106895;1255;25379;-57
2024/03/31 05:56:22;;;;;;;7.90;2.90;;;;;;;16.94;54.57;101806.80;106893;1271;25409;-57
2024/03/31 05:58:49;;;;;;;18.00;4.30;;;;;;;17.16;54.24;101806.98;106835;1255;25555;-56
2024/03/31 06:01:19;;;;;;;7.90;2.60;;;;;;;17.45;53.76;101810.93;104933;1251;1005458;-56
2024/03/31 06:03:47;;;;;;;12.70;3.80;;;;;;;17.79;53.01;101811.87;107124;1256;25380;-57
2024/03/31 06:06:15;;;;;;;11.70;2.90;;;;;;;18.20;52.20;101809.02;107159;1256;25352;-57
2024/03/31 06:08:42;;;;;;;14.50;3.50;;;;;;;18.67;51.22;101800.58;107103;1265;25380;-57
2024/03/31 06:11:09;;;;;;;10.70;3.20;;;;;;;19.16;50.29;101806.86;106922;1256;25501;-57
2024/03/31 06:13:36;;;;;;;18.50;3.80;;;;;;;19.68;49.17;101805.92;107094;1256;25351;-57
2024/03/31 06:16:04;;;;;;;14.80;3.40;;;;;;;20.17;48.08;101802.87;107059;1264;25419;-57
2024/03/31 06:18:31;;;;;;;13.00;4.50;;;;;;;20.74;46.95;101803.61;107020;1256;25446;-58
2024/03/31 06:20:58;;;;;;;14.50;3.50;;;;;;;21.26;45.48;101808.67;106945;1268;22535;-57
2024/03/31 06:23:25;;;;;;;10.60;3.40;;;;;;;21.71;44.31;101813.09;105396;1267;1005118;-57
2024/03/31 06:25:56;;;;;;;11.40;3.30;;;;;;;22.09;43.30;101814.83;107015;1265;23254;-57
2024/03/31 06:28:23;;;;;;;13.90;3.10;;;;;;;22.41;42.32;101810.64;106894;1258;22541;-57
2024/03/31 06:30:51;;;;;;;12.10;3.60;;;;;;;22.61;41.70;101806.36;107116;1256;25344;-57
2024/03/31 06:33:18;;;;;;;17.50;3.50;;;;;;;22.81;41.18;101805.98;107118;1257;25341;-57
2024/03/31 06:35:45;;;;;;;11.80;3.40;;;;;;;22.92;40.65;101810.63;107050;1263;25415;-57
2024/03/31 06:38:13;;;;;;;9.70;3.60;;;;;;;22.90;40.47;101815.69;106952;1261;25425;-57
2024/03/31 06:40:40;;;;;;;11.60;3.30;;;;;;;22.84;40.34;101818.02;107001;1255;24391;-57
2024/03/31 06:43:08;;;;;;;15.40;4.70;;;;;;;22.76;40.09;101817.05;106971;1257;22538;-58
2024/03/31 06:45:35;;;;;;;15.20;4.20;;;;;;;22.60;40.42;101819.85;106818;1257;22518;-57
2024/03/31 06:48:02;;;;;;;13.20;3.40;;;;;;;22.44;40.56;101823.86;106827;1271;25650;-57
2024/03/31 06:50:29;;;;;;;16.20;3.70;;;;;;;22.36;40.81;101828.40;106465;1261;23888;-57
2024/03/31 06:52:57;;;;;;;12.40;3.50;;;;;;;22.32;40.75;101830.02;106403;1272;25442;-57
2024/03/31 06:55:24;;;;;;;18.40;4.50;;;;;;;22.31;40.74;101830.45;106711;1266;25491;-57
2024/03/31 06:57:51;;;;;;;14.70;4.20;;;;;;;22.33;40.78;101828.55;106784;1262;25356;-57
2024/03/31 07:00:18;;;;;;;15.40;4.00;;;;;;;22.38;40.72;101829.90;106764;1263;25392;-57
2024/03/31 07:02:49;;;;;;;16.40;3.80;;;;;;;22.45;40.77;101829.49;106462;1262;25531;-57
2024/03/31 07:05:17;;;;;;;13.50;3.90;;;;;;;22.58;40.72;101824.89;106674;1262;22727;-57
2024/03/31 07:07:44;;;;;;;16.90;3.90;;;;;;;22.76;40.34;101828.52;106484;1259;22591;-57
2024/03/31 07:10:11;;;;;;;14.50;4.10;;;;;;;22.96;40.03;101830.56;106673;1261;25369;-58
2024/03/31 07:12:39;;;;;;;12.10;3.70;;;;;;;23.13;39.83;101827.50;106443;1272;22534;-57
2024/03/31 07:15:06;;;;;;;15.50;4.30;;;;;;;23.18;39.61;101828.96;106621;1257;25387;-57
2024/03/31 07:17:36;;;;;;;15.30;4.30;;;;;;;23.34;39.25;101828.77;106278;1274;25380;-57
2024/03/31 07:20:05;;;;;;;16.70;4.60;;;;;;;23.36;39.35;101827.58;106782;1261;24365;-57
2024/03/31 07:22:32;;;;;;;14.10;4.20;;;;;;;23.50;39.17;101828.36;106732;1263;25380;-57
2024/03/31 07:24:59;;;;;;;14.50;4.00;;;;;;;23.61;38.97;101830.36;106993;1256;25567;-57
2024/03/31 07:27:26;;;;;;;14.10;3.90;;;;;;;23.73;38.70;101831.58;106905;1258;25427;-57
2024/03/31 07:29:53;;;;;;;8.40;3.50;;;;;;;23.84;38.49;101831.98;106784;1261;25501;-57
2024/03/31 07:32:21;;;;;;;11.50;3.70;;;;;;;23.89;38.25;101834.85;106862;1260;22531;-57
2024/03/31 07:34:48;;;;;;;14.80;4.20;;;;;;;23.87;38.01;101834.60;107054;1259;23310;-57
2024/03/31 07:37:15;;;;;;;12.40;4.00;;;;;;;23.78;38.15;101845.63;107009;1264;25377;-58
2024/03/31 07:39:42;;;;;;;16.30;4.20;;;;;;;23.59;38.06;101847.80;107051;1255;25379;-57
2024/03/31 07:42:09;;;;;;;16.00;4.00;;;;;;;23.37;38.40;101852.45;107128;1257;25498;-57
2024/03/31 07:44:37;;;;;;;16.10;4.00;;;;;;;23.14;38.64;101855.23;106853;1265;24222;-57
2024/03/31 07:47:04;;;;;;;15.70;4.40;;;;;;;22.89;39.03;101858.61;107031;1257;24223;-57
2024/03/31 07:49:31;;;;;;;20.60;5.10;;;;;;;22.62;39.38;101859.70;107185;1267;25380;-57
2024/03/31 07:51:58;;;;;;;16.20;4.60;;;;;;;22.37;39.83;101858.77;106847;1267;25492;-57
2024/03/31 07:54:25;;;;;;;15.10;4.00;;;;;;;22.14;40.26;101854.69;107020;1257;25413;-57
2024/03/31 07:56:52;;;;;;;15.70;4.00;;;;;;;21.94;40.66;101850.98;106884;1272;25427;-56
2024/03/31 07:59:19;;;;;;;12.00;4.10;;;;;;;21.74;41.03;101846.48;106759;1271;25354;-56
2024/03/31 08:01:47;;;;;;;15.40;4.20;;;;;;;21.56;41.43;101847.22;106547;1261;25341;-57
2024/03/31 08:04:14;;;;;;;14.30;4.40;;;;;;;21.40;41.84;101842.95;105277;1256;1003533;-57
2024/03/31 08:06:41;;;;;;;12.50;4.30;;;;;;;21.26;42.15;101845.05;106946;1256;24235;-57
2024/03/31 08:09:08;;;;;;;12.80;4.20;;;;;;;21.14;42.51;101846.88;106851;1253;25497;-57
2024/03/31 08:11:35;;;;;;;18.20;4.50;;;;;;;21.04;42.93;101851.56;107006;1262;25341;-57
2024/03/31 08:14:02;;;;;;;13.50;3.30;;;;;;;20.98;42.99;101854.13;107072;1268;25351;-57
2024/03/31 08:16:30;;;;;;;13.60;4.00;;;;;;;20.93;43.22;101859.84;106774;1260;24297;-57
2024/03/31 08:18:57;;;;;;;13.70;4.20;;;;;;;20.90;43.24;101864.02;106761;1261;25420;-57
2024/03/31 08:21:24;;;;;;;18.00;4.30;;;;;;;20.89;43.31;101860.39;107013;1259;25469;-56
2024/03/31 08:23:52;;;;;;;13.40;3.80;;;;;;;20.90;43.37;101857.85;107183;1269;25491;-56
2024/03/31 08:26:19;;;;;;;16.90;4.10;;;;;;;20.87;43.54;101860.65;107144;1257;25379;-56
2024/03/31 08:28:46;;;;;;;15.10;4.20;;;;;;;20.84;43.68;101866.27;107119;1269;25380;-56
2024/03/31 08:31:13;;;;;;;14.90;4.10;;;;;;;20.82;43.60;101867.05;107039;1269;22553;-56
2024/03/31 08:33:40;;;;;;;15.50;3.80;;;;;;;20.80;43.57;101865.17;107124;1255;24279;-56
2024/03/31 08:36:07;;;;;;;23.60;4.60;;;;;;;20.79;43.77;101860.33;107015;1268;25419;-57
2024/03/31 08:38:34;;;;;;;13.90;4.40;;;;;;;20.77;43.76;101859.54;107095;1256;25355;-57
2024/03/31 08:41:08;;;;;;;17.80;4.30;;;;;;;20.75;43.94;101859.09;107149;1256;25425;-57
2024/03/31 08:43:36;;;;;;;17.30;4.30;;;;;;;20.75;44.10;101857.48;107114;1272;22539;-56
2024/03/31 08:46:06;;;;;;;18.90;5.60;;;;;;;20.77;44.14;101859.34;106839;1259;22550;-56
2024/03/31 08:48:35;;;;;;;18.40;5.00;;;;;;;20.79;43.97;101854.45;107094;1259;24212;-57
2024/03/31 08:51:03;;;;;;;18.70;4.30;;;;;;;20.82;43.96;101855.58;106960;1268;24407;-56
2024/03/31 08:53:31;;;;;;;15.80;4.40;;;;;;;20.83;43.96;101855.04;106700;1262;25460;-56
2024/03/31 08:55:59;;;;;;;13.50;4.10;;;;;;;20.84;44.04;101856.58;107158;1268;25437;-56
2024/03/31 08:58:26;;;;;;;15.80;4.00;;;;;;;20.84;43.92;101854.59;107174;1262;25527;-56
2024/03/31 09:00:53;;;;;;;14.90;4.90;;;;;;;20.84;43.88;101850.58;107023;1269;24256;-56
2024/03/31 09:03:24;;;;;;;17.60;4.90;;;;;;;20.89;43.94;101849.80;106875;1267;23260;-57
2024/03/31 09:05:51;;;;;;;20.10;4.90;;;;;;;20.90;44.07;101851.34;106902;1259;25333;-56
2024/03/31 09:08:18;;;;;;;14.40;4.30;;;;;;;20.89;44.13;101847.48;107033;1265;25417;-56
2024/03/31 09:11:08;;;;;;;15.10;4.10;;;;;;;20.91;44.11;101847.02;106721;1269;25420;-56
2024/03/31 09:13:35;;;;;;;16.90;4.60;;;;;;;20.94;44.00;101847.45;106639;1263;25341;-56
2024/03/31 09:16:03;;;;;;;15.70;4.10;;;;;;;20.97;43.87;101843.05;106957;1269;25402;-56
2024/03/31 09:18:30;;;;;;;15.30;4.40;;;;;;;20.98;43.58;101838.23;106768;1268;24269;-57
2024/03/31 09:20:57;;;;;;;17.00;4.40;;;;;;;20.94;43.48;101834.90;107037;1269;24621;-56
2024/03/31 09:23:24;;;;;;;12.40;3.60;;;;;;;20.84;43.48;101833.79;107137;1267;25425;-56
2024/03/31 09:25:51;;;;;;;18.60;4.70;;;;;;;20.76;43.55;101828.02;107074;1268;25480;-56
2024/03/31 09:28:19;;;;;;;21.50;5.00;;;;;;;20.67;43.64;101824.55;107128;1256;24335;-56
2024/03/31 09:30:50;;;;;;;17.60;4.40;;;;;;;20.60;43.91;101821.89;106887;1258;25491;-56
2024/03/31 09:33:17;;;;;;;19.60;4.80;;;;;;;20.55;43.96;101818.59;107111;1269;25414;-56
2024/03/31 09:35:45;;;;;;;14.60;3.80;;;;;;;20.49;44.14;101821.17;107231;1268;22542;-56
2024/03/31 09:38:12;;;;;;;20.90;5.00;;;;;;;20.43;44.32;101816.36;107123;1267;24035;-57
2024/03/31 09:40:40;;;;;;;13.40;4.10;;;;;;;20.39;44.50;101812.46;107187;1257;25351;-56
2024/03/31 09:43:08;;;;;;;14.30;3.80;;;;;;;20.34;44.74;101803.02;106769;1275;25428;-58
2024/03/31 09:45:35;;;;;;;16.70;3.70;;;;;;;20.36;44.81;101800.43;107064;1274;25380;-56
2024/03/31 09:48:06;;;;;;;16.40;4.00;;;;;;;20.37;44.80;101796.15;106340;1257;1003566;-57
2024/03/31 09:51:11;;;;;;;15.50;4.20;;;;;;;20.40;44.82;101797.45;107103;1266;25330;-57
2024/03/31 09:53:39;;;;;;;14.10;4.30;;;;;;;20.44;44.86;101799.55;106756;1268;26548;-57
2024/03/31 09:56:07;;;;;;;19.50;4.40;;;;;;;20.50;44.95;101804.92;106800;1269;22538;-56
2024/03/31 09:58:37;;;;;;;17.70;4.90;;;;;;;20.56;44.72;101803.59;107174;1269;25341;-56
2024/03/31 10:01:05;;;;;;;17.50;4.50;;;;;;;20.60;44.69;101802.33;106887;1269;25314;-57
2024/03/31 10:03:35;;;;;;;16.30;4.40;;;;;;;20.64;44.75;101803.70;107034;1267;25250;-57
2024/03/31 10:06:02;;;;;;;17.90;5.00;;;;;;;20.69;44.86;101809.48;107050;1256;22535;-56
2024/03/31 10:08:31;;;;;;;17.60;4.80;;;;;;;20.73;44.85;101807.33;106902;1269;25532;-57
2024/03/31 10:10:58;;;;;;;19.30;4.70;;;;;;;20.78;44.58;101806.20;106992;1267;25831;-57
2024/03/31 10:13:26;;;;;;;14.30;4.80;;;;;;;20.83;44.75;101796.30;107056;1267;22524;-57
2024/03/31 10:15:57;;;;;;;19.00;5.00;;;;;;;20.86;44.74;101790.33;106857;1267;23312;-57
2024/03/31 10:18:24;;;;;;;15.40;4.40;;;;;;;20.81;44.93;101789.67;107024;1272;24357;-56
2024/03/31 10:20:52;;;;;;;12.30;4.90;;;;;;;20.90;44.67;101787.81;106822;1270;25355;-57
2024/03/31 10:23:19;;;;;;;14.60;4.30;;;;;;;21.00;44.41;101789.48;106836;1269;25532;-57
2024/03/31 10:25:46;;;;;;;18.50;5.00;;;;;;;21.04;44.19;101788.39;106749;1270;22624;-56
2024/03/31 10:28:14;;;;;;;21.40;5.00;;;;;;;21.06;44.21;101785.50;106856;1269;26637;-58
2024/03/31 10:30:41;;;;;;;17.20;4.00;;;;;;;21.07;44.11;101783.52;106836;1269;25394;-58
2024/03/31 10:33:10;;;;;;;18.60;4.90;;;;;;;21.06;44.21;101784.61;106764;1270;22538;-56
2024/03/31 10:35:37;;;;;;;13.20;4.10;;;;;;;21.05;44.22;101778.83;106811;1269;25383;-57
2024/03/31 10:38:04;;;;;;;15.60;4.70;;;;;;;21.06;44.26;101778.30;107162;1269;25421;-57
2024/03/31 10:40:36;;;;;;;18.10;4.30;;;;;;;21.08;44.29;101778.88;107048;1274;23900;-57
2024/03/31 10:43:05;;;;;;;15.40;5.50;;;;;;;21.09;44.23;101776.36;106950;1274;25407;-57
2024/03/31 10:45:32;;;;;;;20.00;4.20;;;;;;;21.12;44.20;101779.04;106899;1272;22535;-57
2024/03/31 10:47:59;;;;;;;19.00;5.30;;;;;;;21.15;44.09;101781.36;106808;1273;25328;-57
2024/03/31 10:50:27;;;;;;;15.50;4.60;;;;;;;21.17;44.06;101775.60;106904;1261;25535;-57
2024/03/31 10:52:54;;;;;;;16.90;6.20;;;;;;;21.19;44.05;101773.91;105574;1267;1003590;-57
2024/03/31 10:55:21;;;;;;;18.70;4.40;;;;;;;21.19;43.92;101774.79;106856;1267;271023;-58
2024/03/31 10:58:00;;;;;;;20.70;4.80;;;;;;;21.17;43.94;101775.25;107067;1271;25532;-57
2024/03/31 11:00:35;;;;;;;17.30;4.10;;;;;;;21.06;44.22;101773.46;106623;1275;25369;-57
2024/03/31 11:03:08;;;;;;;18.30;4.60;;;;;;;21.05;44.33;101772.50;106997;1266;22527;-57
2024/03/31 11:05:37;;;;;;;16.30;5.20;;;;;;;20.97;44.45;101775.13;104571;1260;1003570;-57
2024/03/31 11:08:05;;;;;;;16.00;4.70;;;;;;;20.85;44.55;101775.88;106512;1269;22545;-57
2024/03/31 11:10:32;;;;;;;21.80;4.40;;;;;;;20.98;44.43;101775.27;106787;1267;25341;-58
2024/03/31 11:12:59;;;;;;;21.00;4.90;;;;;;;21.02;44.39;101767.30;106718;1273;22535;-57